Flight Track Log - Related Links

Times and Time Zones

All times are in EST time to prevent confusion due to time zone crossing. See the LYC487 flight status page for this flight to view local times or setup timezone preferences in your user account.

Time Position Orientation Groundspeed Altitude Reporting Facility
EST Latitude Longitude Course Direction KTS MPH feet Rate Location/Type
Sat 03:20:35 AM 19.8936 -70.6803 321° Northwest 305 351 6,000  Level Miami Center
Sat 03:21:37 AM 19.9603 -70.7369 321° Northwest 305 351 5,900 50 Descending Miami Center
Sat 03:22:35 AM 20.0206 -70.7894 325° Northwest 293 337 6,100 1,119 Climbing Miami Center
Sat 03:23:35 AM 20.0742 -70.8289 319° Northwest 263 303 8,100 1,805 Climbing Miami Center
Sat 03:24:38 AM 20.1219 -70.8733 325° Northwest 244 281 9,800 1,438 Climbing Miami Center
Sat 03:25:36 AM 20.1689 -70.9086 319° Northwest 222 255 11,000 1,200 Climbing Miami Center
Sat 03:26:38 AM 20.2144 -70.9508 322° Northwest 212 244 12,200 1,109 Climbing Miami Center
Sat 03:27:35 AM 20.2617 -70.9908 326° Northwest 212 244 13,200 1,026 Climbing Miami Center
Sat 03:28:35 AM 20.3131 -71.0283 319° Northwest 212 244 14,200 1,000 Climbing Miami Center
Sat 03:29:35 AM 20.3606 -71.0728 323° Northwest 217 250 15,200 942 Climbing Miami Center
Sat 03:30:36 AM 20.4122 -71.1150 308° West 217 250 16,100 992 Climbing Miami Center
Sat 03:31:36 AM 20.4517 -71.1686 301° West 223 257 17,200 1,008 Climbing Miami Center
Sat 03:32:35 AM 20.4850 -71.2269 304° West 228 262 18,100 807 Climbing Miami Center
Sat 03:33:35 AM 20.5206 -71.2831 304° West 228 262 18,800 744 Climbing Miami Center
Sat 03:34:36 AM 20.5558 -71.3392 304° West 228 262 19,600 750 Climbing Miami Center
Sat 03:35:35 AM 20.5933 -71.3994 303° West 234 269 20,300 694 Climbing Miami Center
Sat 03:36:37 AM 20.6289 -71.4581 302° West 234 269 21,000 787 Climbing Miami Center
Sat 03:37:37 AM 20.6622 -71.5142 304° West 234 269 21,900 496 Climbing Miami Center
Sat 03:38:38 AM 20.6994 -71.5725 303° West 234 269 22,000 50 Climbing Miami Center
Sat 03:39:37 AM 20.7372 -71.6353 304° West 240 276 22,000  Level Miami Center
Sat 03:40:37 AM 20.7789 -71.7003 304° West 250 288 22,000  Level Miami Center
Sat 03:41:37 AM 20.8208 -71.7675 304° West 261 300 22,000  Level Miami Center
Sat 03:42:37 AM 20.8625 -71.8347 303° West 271 312 22,000  Level Miami Center
Sat 03:43:37 AM 20.9067 -71.9064 303° West 271 312 22,000  Level Miami Center
Sat 03:44:35 AM 20.9439 -71.9672 303° West 276 318 22,000  Level Miami Center
Sat 03:45:35 AM 20.9881 -72.0389 303° West 276 318 22,000  Level Miami Center
Sat 03:46:37 AM 21.0297 -72.1083 304° West 276 318 22,000  Level Miami Center
Sat 03:47:36 AM 21.0758 -72.1803 304° West 276 318 22,000  Level Miami Center
Sat 03:48:36 AM 21.1175 -72.2478 303° West 276 318 22,000  Level Miami Center
Sat 03:49:37 AM 21.1614 -72.3194 302° West 276 318 22,000  Level Miami Center
Sat 03:50:38 AM 21.2031 -72.3917 305° West 276 318 22,000  Level Miami Center
Sat 03:51:37 AM 21.2467 -72.4592 304° West 276 318 22,000  Level Miami Center
Sat 03:52:35 AM 21.2928 -72.5333 301° West 281 323 22,000  Level Miami Center
Sat 03:53:37 AM 21.3322 -72.6033 304° West 281 323 22,000  Level Miami Center
Sat 03:54:37 AM 21.3781 -72.6753 302° West 286 329 22,000  Level Miami Center
Sat 03:55:35 AM 21.4194 -72.7456 300° West 286 329 22,000  Level Miami Center
Sat 03:56:36 AM 21.4592 -72.8200 306° West 286 329 22,000  Level Miami Center
Sat 03:57:36 AM 21.5069 -72.8900 301° West 286 329 22,000  Level Miami Center
Sat 03:58:37 AM 21.5461 -72.9600 304° West 286 329 22,000  Level Miami Center
Sat 03:59:37 AM 21.5919 -73.0325 303° West 294 338 22,000  Level Miami Center
Sat 04:00:37 AM 21.6353 -73.1050 304° West 294 338 22,000  Level Miami Center
Sat 04:01:37 AM 21.6789 -73.1753 304° West 289 333 22,000  Level Miami Center
Sat 04:02:35 AM 21.7222 -73.2456 302° West 289 333 22,000  Level Miami Center
Sat 04:03:35 AM 21.7636 -73.3158 303° West 289 333 22,000  Level Miami Center
Sat 04:04:36 AM 21.8069 -73.3883 303° West 289 333 22,000  Level Miami Center
Sat 04:05:35 AM 21.8483 -73.4567 303° West 289 333 22,000  Level Miami Center
Sat 04:06:37 AM 21.8914 -73.5272 303° West 289 333 22,000  Level Miami Center
Sat 04:07:35 AM 21.9328 -73.5956 302° West 280 322 22,000  Level Miami Center
Sat 04:08:37 AM 21.9739 -73.6661 303° West 280 322 22,000  Level Miami Center
Sat 04:09:38 AM 22.0214 -73.7456 301° West 285 328 22,000  Level Miami Center
Sat 04:10:38 AM 22.0625 -73.8208 306° West 285 328 22,000  Level Miami Center
Sat 04:11:36 AM 22.1078 -73.8892 299° West 290 334 22,000  Level Miami Center
Sat 04:12:35 AM 22.1469 -73.9644 304° West 290 334 22,000  Level Miami Center
Sat 04:13:35 AM 22.1922 -74.0375 303° West 290 334 22,000  Level Miami Center
Sat 04:14:38 AM 22.2353 -74.1083 302° West 290 334 22,000  Level Miami Center
Sat 04:15:37 AM 22.2783 -74.1817 301° West 290 334 22,000  Level Miami Center
Sat 04:16:36 AM 22.3192 -74.2547 304° West 290 334 22,000  Level Miami Center
Sat 04:17:37 AM 22.3622 -74.3236 304° West 290 334 22,000  Level Miami Center
Sat 04:18:35 AM 22.4072 -74.3967 302° West 290 334 22,000  Level Miami Center
Sat 04:19:37 AM 22.4481 -74.4678 302° West 290 334 22,000  Level Miami Center
Sat 04:20:36 AM 22.4889 -74.5392 304° West 285 328 22,000  Level Miami Center
Sat 04:21:37 AM 22.5317 -74.6081 301° West 285 328 22,000  Level Miami Center
Sat 04:22:37 AM 22.5725 -74.6814 303° West 285 328 22,000  Level Miami Center
Sat 04:23:38 AM 22.6153 -74.7528 303° West 285 328 22,000  Level Miami Center
Sat 04:24:37 AM 22.6600 -74.8264 302° West 285 328 22,000  Level Miami Center
Sat 04:25:37 AM 22.7008 -74.8978 301° West 285 328 22,000  Level Miami Center
Sat 04:26:35 AM 22.7433 -74.9736 303° West 285 328 22,000  Level Miami Center
Sat 04:27:38 AM 22.7861 -75.0453 303° West 285 328 22,000  Level Miami Center
Sat 04:28:37 AM 22.8308 -75.1189 301° West 290 334 22,000  Level Miami Center
Sat 04:29:35 AM 22.8714 -75.1928 303° West 290 334 22,000  Level Miami Center
Sat 04:30:35 AM 22.9161 -75.2667 301° West 290 334 22,000  Level Miami Center
Sat 04:31:35 AM 22.9567 -75.3406 302° West 290 334 22,000  Level Miami Center
Sat 04:32:38 AM 22.9992 -75.4144 303° West 290 334 22,000  Level Miami Center
Sat 04:33:35 AM 23.0436 -75.4886 302° West 290 334 22,000  Level Miami Center
Sat 04:34:35 AM 23.0861 -75.5625 301° West 290 334 22,000  Level Miami Center
Sat 04:35:35 AM 23.1264 -75.6344 303° West 290 334 22,000  Level Miami Center
Sat 04:36:35 AM 23.1689 -75.7064 301° West 290 334 22,000  Level Miami Center
Sat 04:37:35 AM 23.2089 -75.7783 303° West 290 334 22,000  Level Miami Center
Sat 04:38:35 AM 23.2514 -75.8503 301° West 290 334 22,000  Level Miami Center
Sat 04:39:37 AM 23.2872 -75.9158 302° West 290 334 22,000  Level Miami Center
Sat 04:40:35 AM 23.3294 -75.9900 303° West 290 334 22,000  Level Miami Center
Sat 04:41:35 AM 23.3717 -76.0622 303° West 285 328 22,000  Level Miami Center
Sat 04:42:35 AM 23.4139 -76.1344 301° West 285 328 22,000  Level Miami Center
Sat 04:43:35 AM 23.4539 -76.2067 303° West 285 328 22,000  Level Miami Center
Sat 04:44:35 AM 23.4961 -76.2789 302° West 285 328 22,000  Level Miami Center
Sat 04:45:35 AM 23.5381 -76.3511 301° West 285 328 22,000  Level Miami Center
Sat 04:46:35 AM 23.5800 -76.4258 302° West 285 328 22,000  Level Miami Center
Sat 04:47:36 AM 23.6219 -76.4983 303° West 290 334 22,000  Level Miami Center
Sat 04:48:37 AM 23.6642 -76.5708 300° West 290 334 22,000  Level Miami Center
Sat 04:49:37 AM 23.7039 -76.6456 302° West 290 334 22,000  Level Miami Center
Sat 04:50:35 AM 23.7458 -76.7181 302° West 290 334 22,000  Level Miami Center
Sat 04:51:35 AM 23.7856 -76.7886 302° West 285 328 22,000  Level Miami Center
Sat 04:52:36 AM 23.8272 -76.8611 302° West 285 328 22,000  Level Miami Center
Sat 04:53:35 AM 23.8669 -76.9317 301° West 285 328 22,000  Level Miami Center
Sat 04:54:37 AM 23.9047 -77.0019 300° West 274 315 22,000  Level Miami Center
Sat 04:55:35 AM 23.9442 -77.0772 303° West 273 314 22,000  Level Miami Center
Sat 04:56:35 AM 23.9858 -77.1478 302° West 278 320 22,000  Level Miami Center
Sat 04:57:36 AM 24.0275 -77.2206 302° West 278 320 22,000  Level Miami Center
Sat 04:58:37 AM 24.0692 -77.2936 300° West 278 320 22,000  Level Miami Center
Sat 04:59:37 AM 24.1086 -77.3689 303° West 278 320 22,000  Level Miami Center
Sat 05:00:37 AM 24.1503 -77.4397 299° West 278 320 22,000  Level Miami Center
Sat 05:01:35 AM 24.1894 -77.5172 302° West 278 320 22,000  Level Miami Center
Sat 05:02:36 AM 24.2311 -77.5903 301° West 278 320 22,000  Level Miami Center
Sat 05:03:37 AM 24.2619 -77.6475 302° West 278 320 22,000  Level Miami Center
Sat 05:04:37 AM 24.3158 -77.7436 300° West 283 326 22,000  Level Miami Center
Sat 05:05:38 AM 24.3550 -77.8169 302° West 283 326 22,000  Level Miami Center
Sat 05:06:36 AM 24.3964 -77.8903 302° West 283 326 22,000  Level Miami Center
Sat 05:07:36 AM 24.4378 -77.9636 300° West 283 326 22,000  Level Miami Center
Sat 05:08:37 AM 24.4769 -78.0369 299° West 283 326 22,000  Level Miami Center
Sat 05:09:37 AM 24.5158 -78.1128 302° West 283 326 22,000  Level Miami Center
Sat 05:10:37 AM 24.5572 -78.1864 302° West 283 326 22,000  Level Miami Center
Sat 05:11:38 AM 24.6003 -78.2622 301° West 289 333 22,000  Level Miami Center
Sat 05:12:36 AM 24.6394 -78.3336 301° West 289 333 22,000  Level Miami Center
Sat 05:13:36 AM 24.6803 -78.4094 302° West 289 333 22,000  Level Miami Center
Sat 05:14:35 AM 24.7131 -78.4669 301° West 289 333 22,000  Level Miami Center
Sat 05:15:38 AM 24.7603 -78.5547 300° West 284 327 22,000  Level Miami Center
Sat 05:16:36 AM 24.7908 -78.6122 304° West 279 321 22,000  Level Miami Center
Sat 05:17:37 AM 24.8442 -78.7000 297° West 279 321 22,000  Level Miami Center
Sat 05:18:37 AM 24.8767 -78.7717 301° West 273 314 22,000  Level Miami Center
Sat 05:19:38 AM 24.9175 -78.8456 304° West 273 314 22,000  Level Miami Center
Sat 05:20:36 AM 24.9564 -78.9103 299° West 273 314 22,000 -51 Level Miami Center
Sat 05:21:36 AM 24.9908 -78.9775 298° West 268 308 21,900 -706 Descending Miami Center
Sat 05:22:35 AM 25.0294 -79.0561 302° West 275 316 20,600 -1,438 Descending Miami Center
Sat 05:23:37 AM 25.0742 -79.1347 300° West 292 336 19,000 -1,463 Descending Miami Center
Sat 05:24:38 AM 25.1169 -79.2158 301° West 299 344 17,600 -1,736 Descending Miami Center
Sat 05:25:38 AM 25.1594 -79.2947 300° West 299 344 15,500 -2,034 Descending Miami Center
Sat 05:26:36 AM 25.2000 -79.3714 300° West 299 344 13,600 -1,932 Descending Miami Center
Sat 05:27:36 AM 25.2406 -79.4481 300° West 299 344 11,700 -1,930 Descending Miami Center
Sat 05:28:31 AM 25.2789 -79.5222 302° West 284 327 9,900 -1,328 Descending Miami Center
Sat 05:29:38 AM 25.3214 -79.5967 294° West 294 338 9,000 -593 Descending Miami Center
Sat 05:30:02 AM 25.3372 -79.6361 307° West 279 321 9,000  Level Miami Center
Sat 05:30:35 AM 25.3597 -79.6689 294° West 288 331 9,000  Level Miami Center
Sat 05:30:56 AM 25.3736 -79.7039 306° West 274 315 9,000  Level Miami Center
Sat 05:31:36 AM 25.3981 -79.7411 303° West 283 326 9,000  Level Miami Center
Sat 05:31:54 AM 25.4161 -79.7714 310° West 274 315 9,000  Level Miami Center
Sat 05:32:35 AM 25.4447 -79.8089 299° West 278 320 9,000  Level Miami Center
Sat 05:32:55 AM 25.4608 -79.8417 310° West 272 313 9,000  Level Miami Center
Sat 05:33:37 AM 25.4872 -79.8767 303° West 273 314 9,000  Level Miami Center
Sat 05:33:58 AM 25.5053 -79.9072 308° West 272 313 9,000  Level Miami Center
Sat 05:34:35 AM 25.5378 -79.9539 300° West 278 320 9,000  Level Miami Center
Sat 05:34:56 AM 25.5500 -79.9772 310° West 272 313 9,000  Level Miami Center
Sat 05:35:35 AM 25.5825 -80.0197 301° West 273 314 9,000  Level Miami Center
Sat 05:35:57 AM 25.5964 -80.0453 309° West 273 314 9,000  Level Miami Center
Sat 05:36:35 AM 25.6269 -80.0875 301° West 268 308 9,000  Level Miami Center
Sat 05:36:57 AM 25.6408 -80.1133 319° Northwest 274 315 9,000  Level Miami Center
Sat 05:37:38 AM 25.6778 -80.1489 312° West 268 308 9,000 -179 Level Miami Center
Sat 05:38:04 AM 25.7042 -80.1819 316° Northwest 277 319 8,800 -638 Descending Miami Center
Sat 05:39:12 AM 25.7653 -80.2481 315° West 285 328 8,000 -738 Descending Miami Center
Sat 05:40:14 AM 25.8222 -80.3122 316° Northwest 291 335 7,200 -1,255 Descending Miami Center
Sat 05:41:02 AM 25.8711 -80.3642 302° West 279 321 5,700 -1,833 Descending Miami Center
Sat 05:42:02 AM 25.9114 -80.4347 261° West 285 328 3,900 -1,000 Descending Miami Center
Sat 05:43:02 AM 25.9014 -80.5014 186° South 216 249 3,700 -359 Descending Miami Center
Sat 05:43:59 AM 25.8572 -80.5069 169° South 177 204 3,200 -365 Descending Miami Center
Sat 05:44:57 AM 25.8094 -80.4964 109° East 164 189 3,000 -208 Descending Miami Center
Sat 05:46:23 AM 25.7942 -80.4475 89° East 153 176 2,700 -469 Descending Miami Center
Sat 05:47:05 AM 25.7947 -80.4150 92° East 142 163 2,000 -923 Descending Miami Center
Sat 05:48:07 AM 25.7936 -80.3736 85° East 139 160 1,100 -738 Descending Miami Center
Sat 05:49:07 AM 25.7967 -80.3367 85° East 105 121 500 -600 Descending Miami Center

Login

Don't have an account? Register now (free) for customized features, flight alerts, and more!